Time;durP1;ratioP1;P1;durP2;ratioP2;P2;SDS_P1;SDS_P2;PMS_P1;PMS_P2;Temp;Humidity;BMP_temperature;BMP_pressure;BME280_temperature;BME280_humidity;BME280_pressure;Samples;Min_cycle;Max_cycle;Signal;HPM_P1;HPM_P2
2021/10/27 00:01:29;;;;;;;;;;;6.90;99.90;;;5.66;100.00;96534.28;10569478;28;1942;-73
2021/10/27 00:06:33;;;;;;;;;;;6.90;99.90;;;5.64;100.00;96536.38;10564406;27;1902;-73
2021/10/27 00:11:36;;;;;;;;;;;6.90;99.90;;;5.63;100.00;96530.22;10575470;27;1791;-73
2021/10/27 00:16:39;;;;;;;;;;;6.90;99.90;;;5.58;100.00;96542.59;10549402;28;1756;-76
2021/10/27 00:21:42;;;;;;;;;;;6.80;99.90;;;5.57;100.00;96539.09;10572369;28;1934;-72
2021/10/27 00:26:45;;;;;;;;;;;6.80;99.90;;;5.56;100.00;96534.00;10572704;28;1914;-73
2021/10/27 00:31:48;;;;;;;;;;;6.80;99.90;;;5.59;100.00;96546.88;10574377;28;1334;-73
2021/10/27 00:36:51;;;;;;;;;;;6.80;99.90;;;5.53;100.00;96539.78;10561510;28;1540;-72
2021/10/27 00:41:54;;;;;;;;;;;6.80;99.90;;;5.48;100.00;96550.31;10585368;28;1283;-73
2021/10/27 00:46:57;;;;;;;;;;;6.70;99.90;;;5.47;100.00;96544.16;10572267;28;2127;-73
2021/10/27 00:52:00;;;;;;;;;;;6.70;99.90;;;5.39;100.00;96542.59;10569741;28;1901;-74
2021/10/27 00:57:03;;;;;;;;;;;6.70;99.90;;;5.35;100.00;96552.09;10564574;28;1996;-73
2021/10/27 01:02:06;;;;;;;;;;;6.60;99.90;;;5.29;100.00;96542.31;10570893;28;1975;-74
2021/10/27 01:07:09;;;;;;;;;;;6.60;99.90;;;5.29;100.00;96547.63;10565979;28;2111;-73
2021/10/27 01:12:14;;;;;;;;;;;6.50;99.90;;;5.29;100.00;96539.63;10578656;27;1930;-74
2021/10/27 01:17:34;;;;;;;;;;;6.50;99.90;;;5.28;100.00;96538.00;10572947;28;1949;-72
2021/10/27 01:22:37;;;;;;;;;;;6.50;99.90;;;5.24;100.00;96534.16;10556779;28;1967;-73
2021/10/27 01:27:40;;;;;;;;;;;6.50;99.90;;;5.22;100.00;96535.41;10575433;27;1983;-72
2021/10/27 01:32:43;;;;;;;;;;;6.50;99.90;;;5.19;100.00;96531.31;10575595;27;1897;-73
2021/10/27 01:38:06;;;;;;;;;;;6.50;99.90;;;5.15;100.00;96533.63;10577791;27;1929;-74
2021/10/27 01:43:09;;;;;;;;;;;6.40;99.90;;;5.12;100.00;96522.59;10573734;28;1894;-74
2021/10/27 01:48:12;;;;;;;;;;;6.40;99.90;;;5.05;100.00;96535.16;10573536;28;1988;-74
2021/10/27 01:53:15;;;;;;;;;;;6.30;99.90;;;5.03;100.00;96532.72;10574736;28;2013;-73
2021/10/27 01:58:18;;;;;;;;;;;6.30;99.90;;;5.00;100.00;96535.00;10575105;28;1886;-74
2021/10/27 02:03:21;;;;;;;;;;;6.50;99.90;;;4.97;100.00;96535.47;10570284;28;1885;-74
2021/10/27 02:08:24;;;;;;;;;;;6.40;99.90;;;4.92;100.00;96521.97;10569735;28;1979;-73
2021/10/27 02:13:27;;;;;;;;;;;6.20;99.90;;;4.90;100.00;96527.53;10575221;28;1930;-73
2021/10/27 02:18:30;;;;;;;;;;;6.30;99.90;;;4.89;100.00;96529.34;10572015;28;2112;-73
2021/10/27 02:23:33;;;;;;;;;;;6.20;99.90;;;4.84;100.00;96526.56;10572746;27;2099;-74
2021/10/27 02:28:36;;;;;;;;;;;6.30;99.90;;;4.80;100.00;96533.34;10570742;28;1910;-73
2021/10/27 02:33:39;;;;;;;;;;;6.10;99.90;;;4.75;100.00;96537.69;10570832;28;1913;-72
2021/10/27 02:38:42;;;;;;;;;;;6.10;99.90;;;4.74;100.00;96538.72;10569207;28;1937;-73
2021/10/27 02:43:47;;;;;;;;;;;6.20;99.90;;;4.74;100.00;96538.72;10574659;28;1883;-73
2021/10/27 02:48:50;;;;;;;;;;;6.20;99.90;;;4.68;100.00;96545.72;10566354;28;1922;-74
2021/10/27 02:53:53;;;;;;;;;;;5.90;99.90;;;4.66;100.00;96542.47;10572043;28;2024;-73
2021/10/27 02:58:56;;;;;;;;;;;5.90;99.90;;;4.63;100.00;96542.91;10572850;28;1894;-75
2021/10/27 03:04:00;;;;;;;;;;;5.90;99.90;;;4.59;100.00;96542.53;10570877;28;1902;-72
2021/10/27 03:09:03;;;;;;;;;;;5.80;99.90;;;4.58;100.00;96556.03;10557388;28;1981;-73
2021/10/27 03:14:06;;;;;;;;;;;5.80;99.90;;;4.53;100.00;96555.91;10573142;28;1906;-75
2021/10/27 03:19:09;;;;;;;;;;;5.70;99.90;;;4.47;100.00;96554.09;10569919;28;1936;-72
2021/10/27 03:24:12;;;;;;;;;;;5.60;99.90;;;4.36;100.00;96552.13;10571422;28;1929;-73
2021/10/27 03:29:15;;;;;;;;;;;5.70;99.90;;;4.32;100.00;96560.53;10551897;28;1934;-73
2021/10/27 03:34:18;;;;;;;;;;;5.60;99.90;;;4.24;100.00;96555.47;10567508;28;1937;-73
2021/10/27 03:39:21;;;;;;;;;;;5.50;99.90;;;4.21;100.00;96550.56;10565746;27;1913;-73
2021/10/27 03:44:24;;;;;;;;;;;5.50;99.90;;;4.24;100.00;96560.78;10552397;28;1973;-73
2021/10/27 03:49:27;;;;;;;;;;;5.50;99.90;;;4.22;100.00;96552.22;10567750;28;1929;-73
2021/10/27 03:54:30;;;;;;;;;;;5.50;99.90;;;4.18;100.00;96566.16;10572465;27;1929;-73
2021/10/27 03:59:33;;;;;;;;;;;5.50;99.90;;;4.16;100.00;96563.72;10570331;28;2084;-73
2021/10/27 04:04:36;;;;;;;;;;;5.40;99.90;;;4.10;100.00;96563.75;10566259;28;1922;-73
2021/10/27 04:09:39;;;;;;;;;;;5.40;99.90;;;4.12;100.00;96565.16;10569677;28;2119;-73
2021/10/27 04:14:42;;;;;;;;;;;5.40;99.90;;;4.06;100.00;96566.00;10565894;28;2005;-72
2021/10/27 04:19:45;;;;;;;;;;;5.30;99.90;;;4.05;100.00;96577.69;10568084;28;1898;-73
2021/10/27 04:24:48;;;;;;;;;;;5.30;99.90;;;4.03;100.00;96577.09;10568639;28;1954;-73
2021/10/27 04:29:50;;;;;;;;;;;5.30;99.90;;;4.06;100.00;96581.97;10566608;28;2123;-74
2021/10/27 04:34:53;;;;;;;;;;;5.30;99.90;;;4.02;100.00;96576.28;10567078;28;1905;-72
2021/10/27 04:39:56;;;;;;;;;;;5.30;99.90;;;3.98;100.00;96579.56;10568887;28;1948;-74
2021/10/27 04:44:59;;;;;;;;;;;5.20;99.90;;;3.95;100.00;96569.34;10546989;28;1882;-74
2021/10/27 04:50:02;;;;;;;;;;;5.20;99.90;;;3.98;100.00;96566.25;10570241;28;1932;-75
2021/10/27 04:55:05;;;;;;;;;;;5.20;99.90;;;4.00;100.00;96570.31;10565578;28;1940;-72
2021/10/27 05:00:08;;;;;;;;;;;5.20;99.90;;;3.96;100.00;96586.94;10568505;28;1945;-73
2021/10/27 05:05:11;;;;;;;;;;;5.20;99.90;;;3.89;100.00;96579.00;10548626;28;1979;-76
2021/10/27 05:10:14;;;;;;;;;;;5.20;99.90;;;3.87;100.00;96582.88;10579917;28;1895;-73
2021/10/27 05:15:18;;;;;;;;;;;5.20;99.90;;;3.90;100.00;96580.63;10591681;28;1786;-73
2021/10/27 05:20:21;;;;;;;;;;;5.10;99.90;;;3.91;100.00;96587.56;10599225;28;2362;-73
2021/10/27 05:25:24;;;;;;;;;;;5.10;99.90;;;3.90;100.00;96587.78;10573970;28;1910;-73
2021/10/27 05:30:27;;;;;;;;;;;5.10;99.90;;;3.91;100.00;96576.94;10568838;28;1882;-73
2021/10/27 05:35:31;;;;;;;;;;;5.10;99.90;;;4.03;100.00;96577.09;10567422;28;1910;-73
2021/10/27 05:40:34;;;;;;;;;;;5.20;99.90;;;3.98;100.00;96590.19;10572410;28;1926;-73
2021/10/27 05:45:37;;;;;;;;;;;5.20;99.90;;;3.89;100.00;96597.63;10568335;28;1962;-72
2021/10/27 05:50:42;;;;;;;;;;;5.20;99.90;;;3.86;100.00;96592.69;10567820;28;1950;-73
2021/10/27 05:55:46;;;;;;;;;;;5.10;99.90;;;3.89;100.00;96600.28;10563169;28;2253;-73
2021/10/27 06:00:49;;;;;;;;;;;5.10;99.90;;;3.92;100.00;96610.47;10557038;27;1834;-73
2021/10/27 06:05:52;;;;;;;;;;;5.10;99.90;;;4.00;100.00;96596.94;10572989;28;1913;-73
2021/10/27 06:10:58;;;;;;;;;;;5.10;99.90;;;4.03;100.00;96601.84;10576744;28;1906;-73
2021/10/27 06:16:01;;;;;;;;;;;5.20;99.90;;;4.16;100.00;96610.78;10570783;28;1871;-73
2021/10/27 06:21:04;;;;;;;;;;;5.20;99.90;;;4.24;100.00;96611.34;10574108;28;1926;-75
2021/10/27 06:26:07;;;;;;;;;;;5.40;99.90;;;4.31;100.00;96609.47;10571470;28;1955;-76
2021/10/27 06:31:13;;;;;;;;;;;5.50;99.90;;;4.43;100.00;96619.44;10574419;27;1918;-75
2021/10/27 06:36:20;;;;;;;;;;;5.50;99.90;;;4.56;100.00;96628.16;10572732;28;1910;-76
2021/10/27 06:46:44;;;;;;;;;;;5.80;99.90;;;4.85;100.00;96621.41;10554261;27;2481;-75
2021/10/27 06:51:47;;;;;;;;;;;5.90;99.90;;;5.02;100.00;96637.66;10565569;28;1972;-75
2021/10/27 06:56:51;;;;;;;;;;;6.00;99.90;;;5.17;100.00;96640.03;10573246;28;2335;-76
2021/10/27 07:18:11;;;;;;;;;;;6.60;99.90;;;5.88;100.00;96642.19;10567744;28;1957;-75
2021/10/27 07:23:14;;;;;;;;;;;6.70;99.90;;;6.08;100.00;96635.81;10572042;27;2051;-75
2021/10/27 07:28:19;;;;;;;;;;;6.90;99.90;;;6.20;100.00;96639.38;10570804;28;1917;-74
2021/10/27 07:33:22;;;;;;;;;;;7.10;99.90;;;6.36;100.00;96624.56;10575871;27;1874;-76
2021/10/27 07:43:48;;;;;;;;;;;7.30;99.90;;;6.61;100.00;96638.59;10568248;28;2041;-76
2021/10/27 07:48:51;;;;;;;;;;;7.50;99.90;;;6.79;100.00;96637.75;10572179;28;1985;-75
2021/10/27 07:53:54;;;;;;;;;;;7.60;99.90;;;6.90;100.00;96628.94;10571392;28;2045;-75
2021/10/27 07:58:57;;;;;;;;;;;7.80;99.90;;;7.04;100.00;96630.38;10572322;28;2025;-75
2021/10/27 08:03:59;;;;;;;;;;;7.90;99.90;;;7.20;100.00;96634.22;10570258;28;1933;-77
2021/10/27 08:09:02;;;;;;;;;;;8.00;99.90;;;7.39;100.00;96637.63;10557290;27;1913;-76
2021/10/27 08:14:05;;;;;;;;;;;8.10;99.90;;;7.62;100.00;96636.78;10554937;28;2514;-75
2021/10/27 08:19:09;;;;;;;;;;;8.30;99.90;;;7.76;100.00;96632.00;10569949;28;1853;-76
2021/10/27 08:24:18;;;;;;;;;;;8.50;99.90;;;7.95;100.00;96630.00;10564522;28;1926;-75
2021/10/27 08:29:26;;;;;;;;;;;8.70;99.90;;;8.17;99.40;96628.34;10574678;28;1967;-76
2021/10/27 08:34:38;;;;;;;;;;;8.90;99.90;;;8.56;98.12;96617.84;10571296;28;1970;-76
2021/10/27 08:39:41;;;;;;;;;;;9.30;99.90;;;8.73;96.59;96617.91;10556875;28;3292;-76
2021/10/27 08:44:45;;;;;;;;;;;9.50;99.90;;;8.89;95.10;96622.47;10568437;28;2533;-75
2021/10/27 08:49:48;;;;;;;;;;;9.70;99.90;;;8.93;95.80;96615.56;10576381;28;2369;-79
2021/10/27 08:54:51;;;;;;;;;;;9.80;99.90;;;9.06;95.64;96615.25;10587120;28;2028;-74
2021/10/27 08:59:59;;;;;;;;;;;9.90;99.90;;;9.17;96.63;96617.06;10593171;28;1871;-75
2021/10/27 09:05:14;;;;;;;;;;;10.10;99.90;;;9.27;96.20;96621.75;10569027;28;1911;-75
2021/10/27 09:10:35;;;;;;;;;;;10.10;99.90;;;9.33;96.72;96617.28;10596335;28;1910;-74
2021/10/27 09:16:09;;;;;;;;;;;10.20;99.90;;;9.44;97.76;96614.50;10593687;28;2394;-75
2021/10/27 09:42:49;;;;;;;;;;;10.80;99.90;;;10.26;93.15;96592.25;10582456;27;1989;-74
2021/10/27 10:04:13;;;;;;;;;;;11.20;99.90;;;10.51;90.44;96589.06;10611224;27;1502;-76
2021/10/27 10:09:41;;;;;;;;;;;11.30;99.90;;;10.62;89.27;96597.19;10624372;28;1893;-76
2021/10/27 10:14:48;;;;;;;;;;;11.50;99.90;;;10.60;89.09;96591.28;10626057;27;2336;-74
2021/10/27 10:19:51;;;;;;;;;;;11.50;99.90;;;10.70;89.17;96594.06;10617462;27;1822;-76
2021/10/27 10:24:54;;;;;;;;;;;11.60;99.90;;;10.87;87.63;96588.56;10608212;27;1874;-74
2021/10/27 10:30:00;;;;;;;;;;;11.70;99.90;;;10.81;88.11;96585.84;10611687;27;2426;-74
2021/10/27 10:35:04;;;;;;;;;;;11.80;99.90;;;10.83;88.17;96580.22;10588282;28;1874;-75
2021/10/27 10:40:10;;;;;;;;;;;11.80;99.90;;;11.06;87.95;96574.47;10581523;28;1784;-75
2021/10/27 11:01:29;;;;;;;;;;;12.20;99.90;;;11.30;85.05;96557.97;10587617;27;1870;-75
2021/10/27 11:23:01;;;;;;;;;;;12.20;99.90;;;11.29;86.58;96535.63;10560210;28;2024;-76
2021/10/27 11:38:53;;;;;;;;;;;12.40;99.90;;;11.33;89.27;96507.16;10563487;28;1509;-75
2021/10/27 11:43:59;;;;;;;;;;;12.40;99.90;;;11.40;88.62;96496.16;10575157;28;2016;-75
2021/10/27 11:49:08;;;;;;;;;;;12.40;99.90;;;11.72;83.95;96490.66;10565834;27;1972;-75
2021/10/27 11:54:11;;;;;;;;;;;12.50;99.90;;;11.82;82.75;96490.69;10567906;28;1897;-76
2021/10/27 11:59:14;;;;;;;;;;;12.70;99.90;;;11.82;82.41;96484.50;10555816;28;1819;-75
2021/10/27 12:04:18;;;;;;;;;;;12.80;99.90;;;11.76;84.19;96478.25;10573906;28;1938;-75
2021/10/27 12:09:29;;;;;;;;;;;12.80;99.90;;;11.87;82.90;96471.88;10571289;27;1918;-77
2021/10/27 12:14:56;;;;;;;;;;;12.80;99.90;;;11.87;81.61;96461.09;10569763;27;1929;-75
2021/10/27 12:19:58;;;;;;;;;;;12.90;99.90;;;11.95;83.19;96456.25;10570327;28;1905;-75
2021/10/27 12:25:04;;;;;;;;;;;12.90;99.90;;;12.01;82.57;96447.13;10571078;28;1811;-75
2021/10/27 12:30:10;;;;;;;;;;;13.00;99.90;;;12.00;84.04;96437.41;10554649;28;1976;-75
2021/10/27 12:35:14;;;;;;;;;;;12.90;99.90;;;12.02;83.96;96440.66;10551866;28;1740;-75
2021/10/27 12:40:21;;;;;;;;;;;13.00;99.90;;;12.13;84.83;96434.22;10574699;27;1937;-76
2021/10/27 12:45:24;;;;;;;;;;;13.00;99.90;;;12.09;84.08;96430.44;10563784;28;1883;-76
2021/10/27 12:50:27;;;;;;;;;;;13.10;99.90;;;12.06;83.28;96442.56;10569712;28;1994;-76
2021/10/27 12:55:30;;;;;;;;;;;13.00;99.90;;;12.12;82.63;96424.50;10549786;28;1890;-76
2021/10/27 13:00:37;;;;;;;;;;;13.10;99.90;;;12.17;81.66;96422.63;10571883;28;1839;-76
2021/10/27 13:05:45;;;;;;;;;;;13.20;99.90;;;12.29;81.23;96422.38;10569280;28;1917;-76
2021/10/27 13:10:59;;;;;;;;;;;13.20;99.90;;;12.25;81.86;96415.91;10573754;28;1975;-76
2021/10/27 13:16:24;;;;;;;;;;;13.30;99.90;;;12.17;82.14;96411.84;10575848;28;1890;-76
2021/10/27 13:21:35;;;;;;;;;;;13.20;99.90;;;12.24;82.74;96408.91;10576341;28;1831;-75
2021/10/27 13:31:59;;;;;;;;;;;13.30;99.90;;;12.23;81.29;96388.41;10565449;27;1942;-75
2021/10/27 13:37:03;;;;;;;;;;;13.30;99.90;;;12.31;80.19;96387.88;10575990;28;1504;-75
2021/10/27 13:42:11;;;;;;;;;;;13.30;99.90;;;12.28;80.55;96377.63;10580558;28;1479;-76
2021/10/27 13:47:27;;;;;;;;;;;13.30;99.90;;;12.33;80.42;96377.63;10570040;28;1918;-75
2021/10/27 13:57:59;;;;;;;;;;;13.30;99.90;;;12.31;79.82;96362.81;10573595;28;1894;-76
2021/10/27 14:08:25;;;;;;;;;;;13.30;99.90;;;12.36;78.81;96350.13;10570787;28;1963;-75
2021/10/27 14:13:39;;;;;;;;;;;13.40;99.90;;;12.43;77.55;96350.66;10574210;28;2186;-76
2021/10/27 14:19:02;;;;;;;;;;;13.40;99.90;;;12.34;80.45;96363.09;10573283;27;2081;-75
2021/10/27 15:23:08;;;;;;;;;;;12.90;99.90;;;11.59;92.66;96351.09;10569819;28;1890;-75
2021/10/27 15:33:42;;;;;;;;;;;12.60;99.90;;;11.23;96.64;96344.78;10549159;28;2393;-75
2021/10/27 15:44:23;;;;;;;;;;;12.30;99.90;;;10.83;100.00;96349.72;10574847;28;1990;-76
2021/10/27 15:54:55;;;;;;;;;;;11.90;99.90;;;10.37;100.00;96347.81;10596928;27;2035;-76
2021/10/27 15:59:58;;;;;;;;;;;11.60;99.90;;;10.26;100.00;96345.06;10560525;27;1979;-76
2021/10/27 16:05:01;;;;;;;;;;;11.40;99.90;;;10.07;100.00;96351.88;10556106;28;1938;-77
2021/10/27 16:10:14;;;;;;;;;;;11.30;99.90;;;9.93;100.00;96353.34;10561695;28;1944;-76
2021/10/27 16:15:23;;;;;;;;;;;11.10;99.90;;;9.76;100.00;96345.41;10552259;28;1920;-76
2021/10/27 16:20:26;;;;;;;;;;;11.00;99.90;;;9.63;100.00;96343.94;10570203;28;1884;-77
2021/10/27 16:25:29;;;;;;;;;;;10.90;99.90;;;9.48;100.00;96349.97;10558977;28;2093;-77
2021/10/27 16:30:32;;;;;;;;;;;10.70;99.90;;;9.25;100.00;96352.91;10557393;28;1972;-75
2021/10/27 16:35:36;;;;;;;;;;;10.50;99.90;;;9.12;100.00;96353.31;10556887;28;2058;-77
2021/10/27 16:40:38;;;;;;;;;;;10.40;99.90;;;8.91;100.00;96354.94;10556733;28;1881;-77
2021/10/27 16:45:41;;;;;;;;;;;10.20;99.90;;;8.86;100.00;96352.19;10545825;28;1862;-75
2021/10/27 16:50:44;;;;;;;;;;;10.10;99.90;;;8.73;100.00;96358.72;10550160;28;1917;-76
2021/10/27 16:55:47;;;;;;;;;;;10.00;99.90;;;8.55;100.00;96351.75;10562651;28;1827;-75
2021/10/27 17:00:50;;;;;;;;;;;9.80;99.90;;;8.35;100.00;96362.16;10557039;28;1912;-77
2021/10/27 17:05:53;;;;;;;;;;;9.70;99.90;;;8.26;100.00;96358.25;10523002;28;2013;-77
2021/10/27 17:10:56;;;;;;;;;;;9.60;99.90;;;8.22;100.00;96362.47;10522215;28;2596;-76
2021/10/27 17:15:59;;;;;;;;;;;9.40;99.90;;;8.13;100.00;96360.19;10527085;28;1889;-77
2021/10/27 17:21:04;;;;;;;;;;;9.40;99.90;;;7.93;100.00;96370.56;10526771;28;1920;-77
2021/10/27 17:26:06;;;;;;;;;;;9.20;99.90;;;7.81;100.00;96373.31;10524327;28;1869;-78
2021/10/27 17:31:09;;;;;;;;;;;9.10;99.90;;;7.71;100.00;96369.66;10529912;28;1909;-78
2021/10/27 17:36:12;;;;;;;;;;;8.90;99.90;;;7.55;100.00;96373.91;10516675;28;1905;-77
2021/10/27 17:41:17;;;;;;;;;;;8.80;99.90;;;7.46;100.00;96380.69;10533683;28;1882;-76
2021/10/27 17:46:23;;;;;;;;;;;8.70;99.90;;;7.38;100.00;96379.22;10529336;28;1973;-75
2021/10/27 17:51:27;;;;;;;;;;;8.60;99.90;;;7.37;100.00;96366.88;10523706;28;1921;-76
2021/10/27 18:01:50;;;;;;;;;;;8.40;99.90;;;7.25;100.00;96371.44;10521825;28;1948;-76
2021/10/27 18:06:54;;;;;;;;;;;8.40;99.90;;;7.26;100.00;96375.78;10531101;28;1833;-77
2021/10/27 18:11:57;;;;;;;;;;;8.40;99.90;;;7.26;100.00;96375.78;10530895;28;1971;-77
2021/10/27 18:17:03;;;;;;;;;;;8.40;99.90;;;7.27;100.00;96372.06;10530382;28;1814;-75
2021/10/27 18:22:15;;;;;;;;;;;8.40;99.90;;;7.25;100.00;96376.81;10574668;28;1845;-76
2021/10/27 18:38:15;;;;;;;;;;;8.30;99.90;;;7.21;100.00;96363.13;10521826;28;3374;-75
2021/10/27 18:43:22;;;;;;;;;;;8.30;99.90;;;7.19;100.00;96365.22;10520970;28;2311;-76
2021/10/27 18:48:25;;;;;;;;;;;8.30;99.90;;;7.14;100.00;96364.31;10545952;28;1881;-78
2021/10/27 18:53:36;;;;;;;;;;;8.30;99.90;;;7.05;100.00;96364.66;10553772;28;2330;-76
2021/10/27 18:58:42;;;;;;;;;;;8.20;99.90;;;6.92;100.00;96358.75;10566753;28;1861;-76
2021/10/27 19:14:38;;;;;;;;;;;8.00;99.90;;;6.87;100.00;96356.81;10541538;28;1980;-76
2021/10/27 19:19:41;;;;;;;;;;;8.00;99.90;;;6.99;100.00;96364.78;10531628;28;1925;-77
2021/10/27 19:24:47;;;;;;;;;;;8.00;99.90;;;7.02;100.00;96354.44;10522135;28;2044;-76
2021/10/27 19:29:56;;;;;;;;;;;8.10;99.90;;;7.12;100.00;96358.38;10522201;28;1838;-77
2021/10/27 20:07:32;;;;;;;;;;;7.60;99.90;;;6.38;100.00;96342.94;10524369;28;1766;-77
2021/10/27 20:50:23;;;;;;;;;;;7.40;99.90;;;6.27;100.00;96325.06;10533602;28;1998;-76
2021/10/27 20:55:28;;;;;;;;;;;7.40;99.90;;;6.44;100.00;96309.97;10528832;28;1937;-75
2021/10/27 21:00:36;;;;;;;;;;;7.50;99.90;;;6.29;100.00;96312.28;10531166;28;1957;-77
2021/10/27 21:16:20;;;;;;;;;;;7.20;99.90;;;5.97;100.00;96301.13;10529336;28;2212;-75
2021/10/27 21:21:23;;;;;;;;;;;7.10;99.90;;;5.82;100.00;96298.09;10535743;28;2217;-75
2021/10/27 21:26:27;;;;;;;;;;;7.10;99.90;;;5.65;100.00;96301.41;10531180;28;1919;-76
2021/10/27 21:31:40;;;;;;;;;;;7.00;99.90;;;5.51;100.00;96305.34;10560517;28;1913;-76
2021/10/27 21:47:25;;;;;;;;;;;6.50;99.90;;;5.41;100.00;96283.75;10544636;28;1853;-75
2021/10/27 21:52:27;;;;;;;;;;;6.50;99.90;;;5.54;100.00;96277.41;10530123;28;2061;-76
2021/10/27 21:57:31;;;;;;;;;;;6.60;99.90;;;5.59;100.00;96269.50;10527363;28;1846;-76
2021/10/27 22:02:33;;;;;;;;;;;6.70;99.90;;;5.63;100.00;96263.50;10530362;28;1507;-75
2021/10/27 22:07:37;;;;;;;;;;;6.70;99.90;;;5.57;100.00;96266.28;10546837;28;1798;-76
2021/10/27 22:12:39;;;;;;;;;;;6.70;99.90;;;5.53;100.00;96265.09;10566250;28;1894;-76
2021/10/27 22:17:42;;;;;;;;;;;6.60;99.90;;;5.60;100.00;96255.97;10571126;28;1760;-74
2021/10/27 22:22:45;;;;;;;;;;;6.70;99.90;;;5.36;100.00;96244.44;10532090;28;1925;-75
2021/10/27 22:27:49;;;;;;;;;;;6.60;99.90;;;5.32;100.00;96239.78;10531363;28;1956;-75
2021/10/27 22:32:52;;;;;;;;;;;6.50;99.90;;;5.25;100.00;96237.22;10546417;28;1894;-75
2021/10/27 22:37:55;;;;;;;;;;;6.50;99.90;;;5.32;100.00;96231.81;10531351;28;1873;-75
2021/10/27 22:42:59;;;;;;;;;;;6.40;99.90;;;5.37;100.00;96229.25;10532275;28;1827;-74
2021/10/27 22:48:01;;;;;;;;;;;6.50;99.90;;;5.13;100.00;96225.72;10521504;28;1930;-75
2021/10/27 22:53:04;;;;;;;;;;;6.40;99.90;;;5.05;100.00;96223.41;10532227;28;1965;-77
2021/10/27 22:58:11;;;;;;;;;;;6.30;99.90;;;4.95;100.00;96220.47;10525358;28;1753;-75
2021/10/27 23:03:24;;;;;;;;;;;6.10;99.90;;;5.11;100.00;96223.31;10520448;28;1924;-76
2021/10/27 23:14:17;;;;;;;;;;;6.20;99.90;;;5.27;100.00;96207.69;10507754;28;1955;-74
2021/10/27 23:40:44;;;;;;;;;;;6.20;99.90;;;5.06;100.00;96201.03;10525015;28;1330;-77
2021/10/27 23:45:47;;;;;;;;;;;6.20;99.90;;;5.13;100.00;96191.91;10524644;28;1870;-77
2021/10/27 23:50:52;;;;;;;;;;;6.20;99.90;;;5.07;100.00;96197.31;10524206;28;2239;-76
2021/10/27 23:56:01;;;;;;;;;;;6.20;99.90;;;5.05;100.00;96194.91;10531035;28;1988;-76
